createdAt,value
2023-04-25T00:01:26.876Z,2.20
2023-04-25T00:03:54.356Z,2.80
2023-04-25T00:06:22.190Z,2.23
2023-04-25T00:08:49.944Z,1.80
2023-04-25T00:11:17.174Z,2.73
2023-04-25T00:13:44.433Z,3.37
2023-04-25T00:16:12.736Z,3.50
2023-04-25T00:18:39.875Z,3.20
2023-04-25T00:21:07.814Z,3.00
2023-04-25T00:23:36.816Z,3.17
2023-04-25T00:26:04.205Z,1.73
2023-04-25T00:28:31.476Z,1.70
2023-04-25T00:30:58.992Z,1.70
2023-04-25T00:33:26.332Z,1.37
2023-04-25T00:35:53.492Z,1.33
2023-04-25T00:38:23.532Z,1.10
2023-04-25T00:40:51.253Z,1.10
2023-04-25T00:43:18.458Z,1.40
2023-04-25T00:45:48.856Z,1.20
2023-04-25T00:48:16.209Z,0.90
2023-04-25T00:50:46.105Z,1.30
2023-04-25T00:53:13.807Z,1.20
2023-04-25T00:55:41.102Z,1.43
2023-04-25T00:58:08.776Z,1.30
2023-04-25T01:00:36.813Z,1.20
2023-04-25T01:03:05.339Z,1.20
2023-04-25T01:05:33.182Z,1.40
2023-04-25T01:08:00.920Z,1.10
2023-04-25T01:10:28.400Z,1.23
2023-04-25T01:12:56.027Z,1.30
2023-04-25T01:15:23.491Z,1.17
2023-04-25T01:17:51.061Z,1.30
2023-04-25T01:20:18.559Z,1.20
2023-04-25T01:22:46.003Z,1.43
2023-04-25T01:25:13.540Z,1.73
2023-04-25T01:27:41.494Z,1.50
2023-04-25T01:30:09.462Z,1.43
2023-04-25T01:32:40.710Z,1.83
2023-04-25T01:35:10.545Z,1.80
2023-04-25T01:37:42.202Z,1.80
2023-04-25T01:40:11.822Z,2.03
2023-04-25T01:42:41.418Z,1.87
2023-04-25T01:45:09.786Z,2.53
2023-04-25T01:47:37.135Z,2.07
2023-04-25T01:50:05.821Z,2.20
2023-04-25T01:52:33.021Z,2.27
2023-04-25T01:55:02.606Z,1.83
2023-04-25T01:57:29.785Z,2.27
2023-04-25T02:00:02.859Z,2.20
2023-04-25T02:02:30.283Z,1.90
2023-04-25T02:04:57.822Z,2.00
2023-04-25T02:07:24.984Z,2.30
2023-04-25T02:09:52.179Z,2.80
2023-04-25T02:12:19.536Z,2.40
2023-04-25T02:14:46.666Z,2.10
2023-04-25T02:17:14.870Z,2.00
2023-04-25T02:19:42.136Z,2.17
2023-04-25T02:22:09.460Z,1.87
2023-04-25T02:24:36.682Z,1.90
2023-04-25T02:27:04.380Z,2.30
2023-04-25T02:29:31.607Z,2.20
2023-04-25T02:31:59.307Z,2.20
2023-04-25T02:34:26.470Z,2.33
2023-04-25T02:36:53.634Z,2.13
2023-04-25T02:39:20.990Z,2.10
2023-04-25T02:41:48.145Z,2.67
2023-04-25T02:44:15.298Z,2.60
2023-04-25T02:46:42.581Z,2.80
2023-04-25T02:49:09.807Z,3.50
2023-04-25T02:51:38.467Z,3.40
2023-04-25T02:54:05.875Z,4.03
2023-04-25T02:56:33.142Z,3.83
2023-04-25T02:59:01.049Z,4.40
2023-04-25T03:01:28.372Z,3.83
2023-04-25T03:03:56.278Z,4.20
2023-04-25T03:06:23.730Z,4.47
2023-04-25T03:08:51.072Z,4.30
2023-04-25T03:11:18.244Z,3.80
2023-04-25T03:13:45.547Z,4.87
2023-04-25T03:16:13.073Z,4.50
2023-04-25T03:18:40.639Z,5.00
2023-04-25T03:21:07.858Z,5.10
2023-04-25T03:23:35.557Z,4.70
2023-04-25T03:26:02.796Z,4.57
2023-04-25T03:28:30.618Z,3.97
2023-04-25T03:30:57.888Z,4.03
2023-04-25T03:33:25.206Z,4.90
2023-04-25T03:35:53.012Z,4.33
2023-04-25T03:38:20.392Z,4.80
2023-04-25T03:40:47.647Z,3.90
2023-04-25T03:43:14.954Z,3.57
2023-04-25T03:45:42.617Z,3.73
2023-04-25T03:48:10.534Z,3.73
2023-04-25T03:50:37.663Z,3.70
2023-04-25T03:53:04.801Z,3.77
2023-04-25T03:55:32.621Z,3.47
2023-04-25T03:58:00.281Z,4.33
2023-04-25T04:00:28.021Z,4.00
2023-04-25T04:02:55.452Z,4.10
2023-04-25T04:05:23.562Z,4.70
2023-04-25T04:07:51.341Z,6.33
2023-04-25T04:10:18.762Z,6.27
2023-04-25T04:12:49.065Z,4.30
2023-04-25T04:15:16.290Z,4.43
2023-04-25T04:17:44.151Z,4.40
2023-04-25T04:20:12.639Z,4.07
2023-04-25T04:22:41.128Z,4.30
2023-04-25T04:25:08.717Z,4.23
2023-04-25T04:27:36.480Z,4.07
2023-04-25T04:30:04.466Z,3.63
2023-04-25T04:32:31.864Z,3.50
2023-04-25T04:34:59.610Z,3.33
2023-04-25T04:37:26.796Z,3.30
2023-04-25T04:39:53.949Z,3.13
2023-04-25T04:42:22.527Z,3.27
2023-04-25T04:44:50.159Z,3.27
2023-04-25T04:47:17.268Z,3.50
2023-04-25T04:49:44.475Z,3.17
2023-04-25T04:52:11.600Z,3.63
2023-04-25T04:54:38.771Z,2.97
2023-04-25T04:57:06.180Z,3.50
2023-04-25T04:59:33.667Z,3.03
2023-04-25T05:02:00.881Z,3.10
2023-04-25T05:04:28.117Z,3.27
2023-04-25T05:06:55.476Z,2.83
2023-04-25T05:09:26.871Z,2.93
2023-04-25T05:11:54.154Z,2.90
2023-04-25T05:14:23.137Z,3.70
2023-04-25T05:16:50.807Z,3.70
2023-04-25T05:19:17.926Z,3.07
2023-04-25T05:21:45.070Z,3.13
2023-04-25T05:24:12.275Z,13.33
2023-04-25T05:26:39.674Z,3.63
2023-04-25T05:29:07.008Z,7.70
2023-04-25T05:31:34.791Z,3.70
2023-04-25T05:34:01.985Z,8.80
2023-04-25T05:36:29.404Z,2.90
2023-04-25T05:38:56.621Z,3.17
2023-04-25T05:41:23.951Z,3.30
2023-04-25T05:43:51.969Z,3.30
2023-04-25T05:46:19.910Z,7.47
2023-04-25T05:48:50.443Z,5.00
2023-04-25T05:51:19.693Z,3.90
2023-04-25T05:53:47.019Z,3.43
2023-04-25T05:56:14.585Z,4.10
2023-04-25T05:58:42.903Z,3.60
2023-04-25T06:01:10.661Z,3.93
2023-04-25T06:03:39.353Z,3.57
2023-04-25T06:06:06.982Z,3.60
2023-04-25T06:08:34.214Z,3.70
2023-04-25T06:11:01.482Z,3.63
2023-04-25T06:13:28.704Z,4.43
2023-04-25T06:15:56.205Z,3.90
2023-04-25T06:18:23.512Z,4.30
2023-04-25T06:20:50.666Z,4.50
2023-04-25T06:23:17.795Z,4.53
2023-04-25T06:25:45.105Z,4.20
2023-04-25T06:28:12.247Z,5.13
2023-04-25T06:30:39.430Z,5.50
2023-04-25T06:33:07.032Z,5.87
2023-04-25T06:35:34.256Z,5.30
2023-04-25T06:38:01.660Z,5.27
2023-04-25T06:40:28.802Z,6.13
2023-04-25T06:42:55.974Z,8.87
2023-04-25T06:45:23.634Z,6.40
2023-04-25T06:47:50.862Z,5.30
2023-04-25T06:50:18.090Z,6.93
2023-04-25T06:52:45.963Z,5.30
2023-04-25T06:55:13.109Z,4.93
2023-04-25T06:57:40.410Z,5.93
2023-04-25T07:00:10.698Z,16.20
2023-04-25T07:02:38.099Z,12.93
2023-04-25T07:05:06.409Z,6.17
2023-04-25T07:07:33.789Z,5.53
2023-04-25T07:10:03.275Z,6.10
2023-04-25T07:12:30.598Z,5.70
2023-04-25T07:14:57.814Z,5.77
2023-04-25T07:17:25.138Z,4.50
2023-04-25T07:19:52.905Z,4.80
2023-04-25T07:22:20.671Z,4.17
2023-04-25T07:24:49.973Z,4.20
2023-04-25T07:27:17.249Z,4.10
2023-04-25T07:29:44.627Z,3.40
2023-04-25T07:32:13.613Z,3.37
2023-04-25T07:34:40.953Z,4.10
2023-04-25T07:37:08.409Z,3.70
2023-04-25T07:39:36.381Z,3.90
2023-04-25T07:42:05.451Z,3.87
2023-04-25T07:44:33.130Z,3.90
2023-04-25T07:47:01.889Z,3.97
2023-04-25T07:49:30.258Z,4.03
2023-04-25T07:51:57.506Z,4.03
2023-04-25T07:54:24.728Z,3.93
2023-04-25T07:56:53.319Z,4.37
2023-04-25T07:59:21.970Z,3.60
2023-04-25T08:01:49.344Z,2.77
2023-04-25T08:04:16.717Z,2.77
2023-04-25T08:06:44.444Z,2.63
2023-04-25T08:09:11.878Z,3.00
2023-04-25T08:11:39.239Z,3.00
2023-04-25T08:14:08.138Z,3.00
2023-04-25T08:16:35.390Z,4.73
2023-04-25T08:19:03.808Z,6.17
2023-04-25T08:21:31.185Z,3.40
2023-04-25T08:23:59.900Z,2.60
2023-04-25T08:26:27.242Z,3.40
2023-04-25T08:28:54.391Z,3.53
2023-04-25T08:31:22.162Z,3.33
2023-04-25T08:33:50.723Z,4.27
2023-04-25T08:36:31.561Z,4.83
2023-04-25T08:39:05.975Z,11.27
2023-04-25T08:41:33.446Z,9.07
2023-04-25T08:44:02.497Z,4.57
2023-04-25T08:46:32.677Z,4.27
2023-04-25T08:49:03.177Z,3.50
2023-04-25T08:51:35.738Z,3.97
2023-04-25T08:57:05.733Z,4.10
2023-04-25T08:59:35.128Z,4.33
2023-04-25T09:02:03.322Z,4.13
2023-04-25T09:04:33.536Z,4.20
2023-04-25T09:07:00.747Z,3.33
2023-04-25T09:09:28.037Z,4.23
2023-04-25T09:10:29.039Z,4.17
2023-04-25T09:11:57.007Z,4.03
2023-04-25T09:14:27.095Z,4.10
2023-04-25T09:16:58.229Z,4.50
2023-04-25T09:19:38.669Z,4.53
2023-04-25T09:22:08.603Z,4.90
2023-04-25T09:24:41.901Z,4.33
2023-04-25T09:27:11.766Z,4.23
2023-04-25T09:29:41.801Z,4.07
2023-04-25T09:32:25.963Z,4.17
2023-04-25T09:34:58.271Z,4.77
2023-04-25T09:37:30.852Z,3.97
2023-04-25T09:40:06.716Z,3.90
2023-04-25T09:42:36.049Z,3.83
2023-04-25T09:45:05.218Z,4.20
2023-04-25T09:47:33.306Z,3.33
2023-04-25T09:50:00.784Z,3.77
2023-04-25T09:52:31.716Z,4.13
2023-04-25T09:54:59.013Z,3.50
2023-04-25T09:57:26.520Z,3.60
2023-04-25T09:59:55.680Z,3.80
2023-04-25T10:02:28.777Z,3.90
2023-04-25T10:04:57.453Z,4.43
2023-04-25T10:07:27.812Z,4.37
2023-04-25T10:10:06.185Z,3.40
2023-04-25T10:12:35.207Z,3.87
2023-04-25T10:15:04.089Z,3.37
2023-04-25T10:17:32.850Z,3.67
2023-04-25T10:20:01.997Z,4.17
2023-04-25T10:22:38.316Z,3.70
2023-04-25T10:25:07.312Z,3.57
2023-04-25T10:27:38.363Z,3.37
2023-04-25T10:30:17.052Z,3.63
2023-04-25T10:32:44.896Z,3.60
2023-04-25T10:35:13.777Z,3.73
2023-04-25T10:38:05.858Z,3.53
2023-04-25T10:40:36.609Z,2.83
2023-04-25T10:43:35.470Z,3.47
2023-04-25T10:46:03.516Z,3.20
2023-04-25T10:48:32.496Z,3.40
2023-04-25T10:51:10.762Z,3.93
2023-04-25T10:53:38.462Z,3.20
2023-04-25T10:56:14.544Z,4.20
2023-04-25T10:58:50.342Z,3.70
2023-04-25T11:01:27.205Z,3.40
2023-04-25T11:04:00.153Z,3.50
2023-04-25T11:06:47.489Z,3.70
2023-04-25T11:09:15.075Z,3.77
2023-04-25T11:11:42.739Z,3.70
2023-04-25T11:14:10.006Z,3.93
2023-04-25T11:16:37.826Z,4.10
2023-04-25T11:19:05.307Z,4.23
2023-04-25T11:21:33.077Z,4.20
2023-04-25T11:24:03.235Z,4.33
2023-04-25T11:26:32.103Z,5.00
2023-04-25T11:29:03.034Z,4.57
2023-04-25T11:31:31.078Z,3.70
2023-04-25T11:34:04.714Z,3.70
2023-04-25T11:36:32.817Z,2.87
2023-04-25T11:39:00.111Z,3.83
2023-04-25T11:41:28.174Z,3.90
2023-04-25T11:43:55.861Z,3.93
2023-04-25T11:46:23.864Z,3.70
2023-04-25T11:48:52.030Z,3.63
2023-04-25T11:51:19.565Z,3.00
2023-04-25T11:53:47.181Z,3.10
2023-04-25T11:56:15.759Z,3.40
2023-04-25T11:59:04.024Z,3.00
2023-04-25T12:01:36.557Z,3.63
2023-04-25T12:04:18.106Z,2.70
2023-04-25T12:06:50.222Z,3.57
2023-04-25T12:09:23.347Z,2.70
2023-04-25T12:11:59.589Z,2.70
2023-04-25T12:14:34.107Z,3.40
2023-04-25T12:17:03.444Z,3.73
2023-04-25T12:19:41.899Z,3.40
2023-04-25T12:22:26.020Z,3.30
2023-04-25T12:24:55.391Z,2.80
2023-04-25T12:27:23.250Z,2.80
2023-04-25T12:29:55.986Z,3.27
2023-04-25T12:32:23.785Z,2.30
2023-04-25T12:34:52.393Z,2.70
2023-04-25T12:37:19.932Z,3.07
2023-04-25T12:39:47.405Z,2.63
2023-04-25T12:42:14.616Z,4.80
2023-04-25T12:44:42.456Z,3.27
2023-04-25T12:47:10.635Z,3.27
2023-04-25T12:49:42.641Z,2.80
2023-04-25T12:52:10.007Z,2.47
2023-04-25T12:54:37.590Z,3.27
2023-04-25T12:57:04.753Z,3.10
2023-04-25T12:59:32.136Z,3.47
2023-04-25T13:01:59.413Z,2.67
2023-04-25T13:04:26.824Z,2.83
2023-04-25T13:06:54.566Z,2.90
2023-04-25T13:09:21.956Z,2.77
2023-04-25T13:11:49.925Z,3.00
2023-04-25T13:14:17.235Z,3.03
2023-04-25T13:16:44.596Z,3.00
2023-04-25T13:19:12.816Z,3.07
2023-04-25T13:21:40.509Z,2.63
2023-04-25T13:24:08.172Z,2.77
2023-04-25T13:26:35.653Z,2.50
2023-04-25T13:29:04.891Z,2.50
2023-04-25T13:31:32.735Z,2.90
2023-04-25T13:34:00.211Z,2.63
2023-04-25T13:36:27.483Z,2.60
2023-04-25T13:38:54.858Z,3.60
2023-04-25T13:41:22.355Z,2.53
2023-04-25T13:43:51.247Z,2.97
2023-04-25T13:48:50.231Z,3.30
2023-04-25T13:55:40.185Z,2.90
2023-04-25T13:58:09.300Z,2.37
2023-04-25T14:00:41.792Z,1.90
2023-04-25T14:03:09.521Z,2.03
2023-04-25T14:05:41.385Z,2.17
2023-04-25T14:08:10.616Z,3.03
2023-04-25T14:10:39.156Z,2.20
2023-04-25T14:13:07.795Z,2.30
2023-04-25T14:15:36.377Z,2.70
2023-04-25T14:18:03.657Z,2.40
2023-04-25T14:20:31.534Z,2.30
2023-04-25T14:23:00.340Z,1.90
2023-04-25T14:25:30.931Z,2.00
2023-04-25T14:27:58.062Z,2.03
2023-04-25T14:30:25.820Z,1.30
2023-04-25T14:32:52.990Z,1.63
2023-04-25T14:35:20.227Z,2.80
2023-04-25T14:37:47.398Z,1.80
2023-04-25T14:40:16.988Z,2.13
2023-04-25T14:42:44.250Z,2.13
2023-04-25T14:45:12.180Z,1.90
2023-04-25T14:47:39.687Z,1.60
2023-04-25T14:50:08.446Z,1.80
2023-04-25T14:52:36.213Z,2.67
2023-04-25T14:55:06.483Z,1.70
2023-04-25T14:57:34.870Z,1.87
2023-04-25T15:00:02.478Z,1.97
2023-04-25T15:02:30.016Z,2.50
2023-04-25T15:04:57.927Z,2.30
2023-04-25T15:07:25.249Z,1.93
2023-04-25T15:09:54.652Z,2.33
2023-04-25T15:12:22.047Z,2.20
2023-04-25T15:14:49.494Z,1.73
2023-04-25T15:17:16.877Z,1.77
2023-04-25T15:19:47.952Z,1.60
2023-04-25T15:22:15.975Z,2.13
2023-04-25T15:24:43.155Z,2.60
2023-04-25T15:27:11.506Z,1.70
2023-04-25T15:29:38.751Z,1.93
2023-04-25T15:32:06.177Z,3.17
2023-04-25T15:34:34.692Z,1.90
2023-04-25T15:37:04.535Z,1.60
2023-04-25T15:39:32.259Z,1.93
2023-04-25T15:41:59.601Z,2.50
2023-04-25T15:44:26.919Z,2.20
2023-04-25T15:46:55.354Z,2.70
2023-04-25T15:49:23.234Z,3.73
2023-04-25T15:51:51.442Z,2.77
2023-04-25T15:54:19.294Z,2.67
2023-04-25T15:56:47.329Z,2.23
2023-04-25T15:59:17.341Z,2.50
2023-04-25T16:01:45.322Z,2.73
2023-04-25T16:04:13.088Z,2.50
2023-04-25T16:06:42.632Z,3.50
2023-04-25T16:09:11.498Z,2.47
2023-04-25T16:11:38.767Z,3.77
2023-04-25T16:14:06.409Z,3.50
2023-04-25T16:16:33.817Z,3.67
2023-04-25T16:19:01.131Z,2.90
2023-04-25T16:21:29.114Z,3.17
2023-04-25T16:23:57.064Z,1.90
2023-04-25T16:26:24.368Z,2.30
2023-04-25T16:28:52.291Z,3.17
2023-04-25T16:31:20.123Z,1.90
2023-04-25T16:33:47.364Z,2.13
2023-04-25T16:36:14.571Z,2.33
2023-04-25T16:38:42.956Z,2.20
2023-04-25T16:41:11.345Z,2.73
2023-04-25T16:43:40.999Z,2.40
2023-04-25T16:46:08.964Z,2.27
2023-04-25T16:48:36.770Z,3.10
2023-04-25T16:51:04.127Z,2.63
2023-04-25T16:53:32.972Z,2.47
2023-04-25T16:56:00.188Z,3.07
2023-04-25T16:58:29.244Z,4.03
2023-04-25T17:00:57.056Z,3.57
2023-04-25T17:03:25.339Z,3.33
2023-04-25T17:05:57.948Z,3.70
2023-04-25T17:08:25.234Z,2.57
2023-04-25T17:10:52.775Z,2.60
2023-04-25T17:13:20.086Z,3.70
2023-04-25T17:15:47.385Z,3.37
2023-04-25T17:18:14.759Z,3.97
2023-04-25T17:20:42.539Z,2.67
2023-04-25T17:23:09.754Z,2.80
2023-04-25T17:25:37.078Z,4.80
2023-04-25T17:28:04.962Z,4.50
2023-04-25T17:30:32.921Z,3.73
2023-04-25T17:33:00.355Z,4.33
2023-04-25T17:35:28.758Z,3.53
2023-04-25T17:37:55.978Z,4.47
2023-04-25T17:40:24.143Z,4.03
2023-04-25T17:42:52.309Z,3.27
2023-04-25T17:45:19.695Z,4.87
2023-04-25T17:47:48.014Z,4.07
2023-04-25T17:50:17.330Z,3.90
2023-04-25T17:52:46.157Z,3.60
2023-04-25T17:55:13.515Z,4.47
2023-04-25T17:57:40.854Z,4.37
2023-04-25T18:00:09.843Z,5.43
2023-04-25T18:02:37.313Z,4.00
2023-04-25T18:05:09.700Z,3.73
2023-04-25T18:07:37.523Z,3.33
2023-04-25T18:10:07.105Z,4.10
2023-04-25T18:12:35.078Z,3.10
2023-04-25T18:15:02.922Z,3.33
2023-04-25T18:17:32.393Z,3.07
2023-04-25T18:20:02.425Z,3.30
2023-04-25T18:22:30.086Z,3.40
2023-04-25T18:24:57.327Z,2.80
2023-04-25T18:27:24.841Z,4.00
2023-04-25T18:29:52.007Z,3.50
2023-04-25T18:32:19.887Z,3.20
2023-04-25T18:34:50.433Z,4.00
2023-04-25T18:37:18.086Z,2.97
2023-04-25T18:39:45.604Z,4.50
2023-04-25T18:42:13.167Z,4.47
2023-04-25T18:44:40.763Z,5.77
2023-04-25T18:47:09.863Z,3.50
2023-04-25T18:49:37.909Z,5.43
2023-04-25T18:52:05.853Z,4.30
2023-04-25T18:54:33.405Z,5.07
2023-04-25T18:57:01.516Z,4.30
2023-04-25T18:59:28.726Z,4.83
2023-04-25T19:01:56.286Z,4.33
2023-04-25T19:04:24.247Z,5.20
2023-04-25T19:06:52.496Z,5.27
2023-04-25T19:09:20.254Z,5.23
2023-04-25T19:11:47.605Z,6.57
2023-04-25T19:14:15.367Z,5.40
2023-04-25T19:16:42.960Z,5.57
2023-04-25T19:19:10.585Z,5.60
2023-04-25T19:21:38.060Z,4.37
2023-04-25T19:24:05.702Z,5.23
2023-04-25T19:26:33.314Z,5.50
2023-04-25T19:29:13.147Z,6.60
2023-04-25T19:31:41.935Z,5.47
2023-04-25T19:34:09.615Z,4.93
2023-04-25T19:36:41.616Z,5.73
2023-04-25T19:39:09.007Z,5.33
2023-04-25T19:41:38.387Z,5.60
2023-04-25T19:44:09.704Z,4.30
2023-04-25T19:46:37.536Z,3.70
2023-04-25T19:49:08.452Z,3.83
2023-04-25T19:51:37.258Z,4.10
2023-04-25T19:54:05.234Z,5.47
2023-04-25T19:56:32.966Z,4.50
2023-04-25T19:59:00.573Z,4.80
2023-04-25T20:01:28.705Z,4.70
2023-04-25T20:03:56.613Z,4.40
2023-04-25T20:06:24.174Z,4.17
2023-04-25T20:08:54.261Z,5.07
2023-04-25T20:11:22.149Z,4.50
2023-04-25T20:13:50.134Z,4.77
2023-04-25T20:16:20.163Z,4.33
2023-04-25T20:18:48.801Z,4.63
2023-04-25T20:21:18.266Z,4.87
2023-04-25T20:23:46.412Z,5.20
2023-04-25T20:26:13.635Z,5.23
2023-04-25T20:28:42.183Z,4.87
2023-04-25T20:31:11.285Z,4.50
2023-04-25T20:33:39.024Z,4.30
2023-04-25T20:36:06.515Z,4.80
2023-04-25T20:38:33.886Z,4.47
2023-04-25T20:41:01.180Z,4.30
2023-04-25T20:43:30.906Z,4.40
2023-04-25T20:45:58.999Z,4.83
2023-04-25T20:48:27.276Z,4.50
2023-04-25T20:50:55.391Z,4.90
2023-04-25T20:53:22.719Z,4.77
2023-04-25T20:55:50.586Z,4.87
2023-04-25T20:58:19.012Z,5.20
2023-04-25T21:00:47.781Z,4.87
2023-04-25T21:03:16.639Z,4.93
2023-04-25T21:05:44.171Z,4.93
2023-04-25T21:08:11.428Z,4.50
2023-04-25T21:10:38.869Z,4.83
2023-04-25T21:13:06.260Z,4.53
2023-04-25T21:15:33.993Z,5.17
2023-04-25T21:18:02.208Z,4.83
2023-04-25T21:20:29.732Z,5.37
2023-04-25T21:22:57.204Z,5.93
2023-04-25T21:25:31.627Z,5.40
2023-04-25T21:28:00.318Z,5.10
2023-04-25T21:30:28.015Z,4.80
2023-04-25T21:32:56.554Z,5.07
2023-04-25T21:35:24.453Z,5.93
2023-04-25T21:37:52.525Z,4.60
2023-04-25T21:40:20.122Z,5.90
2023-04-25T21:42:52.022Z,5.27
2023-04-25T21:45:20.643Z,4.97
2023-04-25T21:47:48.911Z,6.03
2023-04-25T21:50:16.336Z,5.43
2023-04-25T21:52:44.301Z,6.40
2023-04-25T21:55:12.025Z,6.10
2023-04-25T21:57:39.231Z,5.20
2023-04-25T22:00:20.421Z,5.43
2023-04-25T22:02:48.668Z,5.27
2023-04-25T22:05:16.455Z,5.30
2023-04-25T22:07:43.726Z,5.57
2023-04-25T22:10:11.376Z,5.27
2023-04-25T22:12:38.712Z,5.40
2023-04-25T22:15:06.515Z,5.70
2023-04-25T22:17:34.309Z,5.50
2023-04-25T22:20:02.686Z,5.67
2023-04-25T22:22:30.430Z,6.00
2023-04-25T22:24:57.811Z,6.80
2023-04-25T22:27:24.973Z,6.60
2023-04-25T22:29:52.437Z,5.50
2023-04-25T22:32:20.591Z,4.93
2023-04-25T22:34:48.189Z,6.10
2023-04-25T22:37:15.479Z,5.50
2023-04-25T22:39:42.771Z,5.73
2023-04-25T22:42:10.322Z,5.23
2023-04-25T22:44:37.628Z,5.93
2023-04-25T22:47:05.616Z,6.23
2023-04-25T22:49:32.810Z,5.60
2023-04-25T22:52:00.136Z,5.70
2023-04-25T22:54:27.924Z,6.00
2023-04-25T22:56:55.160Z,5.73
2023-04-25T22:59:22.552Z,5.80
2023-04-25T23:01:50.368Z,5.60
2023-04-25T23:04:19.762Z,5.80
2023-04-25T23:06:47.298Z,4.63
2023-04-25T23:09:14.424Z,5.20
2023-04-25T23:11:44.827Z,4.90
2023-04-25T23:14:12.051Z,5.83
2023-04-25T23:16:40.990Z,4.47
2023-04-25T23:19:08.305Z,4.70
2023-04-25T23:21:35.740Z,4.90
2023-04-25T23:24:02.916Z,4.73
2023-04-25T23:26:30.394Z,5.07
2023-04-25T23:28:57.801Z,5.13
2023-04-25T23:31:25.312Z,6.87
2023-04-25T23:33:52.580Z,4.67
2023-04-25T23:36:21.601Z,6.43
2023-04-25T23:38:50.878Z,4.97
2023-04-25T23:41:18.663Z,5.20
2023-04-25T23:43:46.400Z,4.80
2023-04-25T23:46:13.719Z,5.90
2023-04-25T23:48:41.740Z,4.67
2023-04-25T23:51:09.150Z,5.40
2023-04-25T23:53:36.738Z,4.83
2023-04-25T23:56:05.678Z,5.53
2023-04-25T23:58:33.382Z,4.47
